Airfield :







YOU CAN JOIN US ON...

 
LOGIN :

Register | Disclaimer

   EN    FR    IT 

 









Legend :    VFR   Marginal VFR   IFR   Intensive IFR   Very Intensive IFR
Visi :
Ceiling :
>= 8 km
>= 3000ft
5 to 8 km
1000 to 3000 ft
1500m to 5 km
500 to 1000 ft
800 to 1500m
200 to 500 ft
< 800m
< 200 ft
Symbols :   Thunderstorms  Fog  Heavy snow  Heavy precipitations  Wind > 20 kt







- Airport Elevation : 1442 ft
- IATA code : ZUM


CZUM - Churchill Falls

CURRENT METAR :
  • 270650Z AUTO 17007KT 130V190 2 1/2SM -RA BR OVC004 05/05 A2965 RMK SLP053

EXPIRED METARs :
  • 270641Z AUTO 16006KT 120V190 5SM -RA BR OVC004 05/05 A2965 RMK SLP053
  • 270635Z AUTO 15009KT 7SM -RA OVC004 05/05 A2965 RMK SLP053
  • 270619Z AUTO 15006KT 110V170 5SM -RA BR OVC004 05/05 A2965 RMK SLP054
  • 270600Z AUTO 15008KT 110V170 7SM -RA OVC004 05/05 A2965 RMK SLP055
  • 270557Z AUTO 13006KT 9SM -RA OVC004 05/05 A2965 RMK SLP056
  • 270547Z AUTO 14008KT 6SM -RA BR OVC006 05/05 A2966 RMK SLP057
  • 270536Z AUTO 13006KT 5SM -RA BR BKN006 OVC010 05/05 A2966 RMK SLP058
  • 270500Z AUTO 14006KT 9SM -RA BKN010 OVC013 05/04 A2966 RMK SLP059
  • 270412Z AUTO 14008KT 9SM -RA OVC017 06/04 A2967 RMK SLP063

TAF AMD TAF CZUM
Valid from the 27 at 06:00 until the 27 at 14:00 UTC


270606Z 2706/2714 15008KT P6SM -RA OVC010
TEMPO 2706/2708 3SM -RA BR OVC004
FM270800 20010KT 2SM -RA BR OVC004
TEMPO 2708/2714 6SM -DZ BR OVC010
BECMG 2709/2711 26010G20KT RMK FCST BASED ON AUTO OBS. NXT FCST BY 270800Z
CZQX FIR / North America



MET'MAP, your aeronautical weather chart ! - Copyright ORBIFLY December 2007 - Disclaimer

ORBIFLY MET'MAP TEAM :

Programming & Development : Alexandra Zaïnal
Concept & Development : Baudouin d'Aumeries
Co-Development & Prog : Marc-Olivier Méhu
Technical & hardware support : Manuel Goepfert

Contact : metmap@orbifly.com




SOURCES & CREDITS :

   NOAA